Time;durP1;ratioP1;P1;durP2;ratioP2;P2;SDS_P1;SDS_P2;PMS_P1;PMS_P2;Temp;Humidity;BMP_temperature;BMP_pressure;BME280_temperature;BME280_humidity;BME280_pressure;Samples;Min_cycle;Max_cycle;Signal;HPM_P1;HPM_P2
2024/03/03 00:01:37;;;;;;;3.05;2.05;;;11.40;99.90;;;;;;4995328;28;20033;-92
2024/03/03 00:04:03;;;;;;;3.05;2.63;;;10.90;99.90;;;;;;4995539;28;20022;-92
2024/03/03 00:06:29;;;;;;;2.65;2.45;;;10.80;99.90;;;;;;4995296;28;20023;-92
2024/03/03 00:08:57;;;;;;;4.15;2.97;;;10.80;99.90;;;;;;4996005;28;20053;-94
2024/03/03 00:11:23;;;;;;;5.68;2.78;;;10.80;99.90;;;;;;4995611;28;20019;-94
2024/03/03 00:13:48;;;;;;;5.97;3.30;;;10.80;99.90;;;;;;4996315;28;20037;-92
2024/03/03 00:16:14;;;;;;;4.00;3.42;;;10.70;99.90;;;;;;4996625;28;20030;-92
2024/03/03 00:18:40;;;;;;;3.17;2.85;;;10.70;99.90;;;;;;4997447;28;20030;-93
2024/03/03 00:21:12;;;;;;;5.63;2.70;;;10.70;99.90;;;;;;4997295;28;20030;-91
2024/03/03 00:23:38;;;;;;;5.32;3.15;;;10.70;99.90;;;;;;4997420;28;20030;-93
2024/03/03 00:26:03;;;;;;;4.22;3.78;;;10.60;99.90;;;;;;4997405;28;20543;-91
2024/03/03 00:28:29;;;;;;;3.58;3.20;;;10.60;99.90;;;;;;4995399;28;20581;-92
2024/03/03 00:30:54;;;;;;;3.58;2.78;;;10.60;99.90;;;;;;4994559;28;20109;-91
2024/03/03 00:33:20;;;;;;;4.07;2.70;;;10.60;99.90;;;;;;4994762;28;20054;-91
2024/03/03 00:35:45;;;;;;;3.80;3.00;;;10.60;99.90;;;;;;4994747;28;20089;-91
2024/03/03 00:38:11;;;;;;;6.88;3.35;;;10.60;99.90;;;;;;4995306;28;20052;-92
2024/03/03 00:40:38;;;;;;;4.43;3.28;;;10.60;99.90;;;;;;4994923;28;20026;-92
2024/03/03 00:43:03;;;;;;;3.20;2.90;;;11.00;99.90;;;;;;4995295;28;20550;-91
2024/03/03 00:45:30;;;;;;;2.83;2.63;;;10.60;99.90;;;;;;5003127;28;20109;-92
2024/03/03 00:47:56;;;;;;;6.25;3.05;;;10.60;99.90;;;;;;5003204;28;20086;-92
2024/03/03 00:50:21;;;;;;;5.10;3.38;;;10.60;99.90;;;;;;5004081;28;20026;-92
2024/03/03 00:52:49;;;;;;;3.13;2.80;;;10.60;99.90;;;;;;4996131;28;20045;-91
2024/03/03 00:55:15;;;;;;;3.70;3.40;;;10.60;99.90;;;;;;5005751;28;20034;-92
2024/03/03 00:57:40;;;;;;;4.22;3.10;;;10.60;99.90;;;;;;4996039;28;20026;-92
2024/03/03 01:00:08;;;;;;;4.72;2.97;;;10.60;99.90;;;;;;4995105;28;20097;-92
2024/03/03 01:02:34;;;;;;;3.63;3.00;;;10.60;99.90;;;;;;4994289;28;20057;-91
2024/03/03 01:05:00;;;;;;;4.50;3.60;;;10.60;99.90;;;;;;4994770;28;20471;-91
2024/03/03 01:07:25;;;;;;;4.28;2.97;;;10.60;99.90;;;;;;4994706;28;20415;-91
2024/03/03 01:09:51;;;;;;;4.22;3.53;;;10.60;99.90;;;;;;4994033;28;20030;-92
2024/03/03 01:12:17;;;;;;;3.35;3.05;;;10.60;99.90;;;;;;4994267;28;20129;-92
2024/03/03 01:14:42;;;;;;;4.28;2.65;;;11.30;99.90;;;;;;4994506;28;20109;-92
2024/03/03 01:17:08;;;;;;;5.68;2.72;;;10.60;99.90;;;;;;4988973;28;20031;-92
2024/03/03 01:19:37;;;;;;;3.50;2.70;;;10.60;99.90;;;;;;4975359;28;20026;-94
2024/03/03 01:22:02;;;;;;;5.32;2.70;;;11.10;99.90;;;;;;4992250;28;20031;-93
2024/03/03 01:24:28;;;;;;;2.92;2.72;;;11.50;99.90;;;;;;4993070;28;20053;-93
2024/03/03 01:26:54;;;;;;;3.45;2.50;;;11.20;99.90;;;;;;4992836;28;20041;-93
2024/03/03 01:29:21;;;;;;;5.30;2.92;;;10.70;99.90;;;;;;5007956;28;20041;-94
2024/03/03 01:31:59;;;;;;;3.30;2.72;;;11.50;99.90;;;;;;5013219;28;20030;-94
2024/03/03 01:34:25;;;;;;;2.97;2.38;;;11.10;99.90;;;;;;4960403;28;20133;-89
2024/03/03 01:36:52;;;;;;;3.42;2.85;;;10.60;99.90;;;;;;4995400;28;20031;-85
2024/03/03 01:39:18;;;;;;;3.15;2.58;;;10.60;99.90;;;;;;4988134;28;20040;-93
2024/03/03 01:41:47;;;;;;;2.70;2.40;;;10.60;99.90;;;;;;4997965;28;20106;-92
2024/03/03 01:44:13;;;;;;;2.53;2.33;;;10.60;99.90;;;;;;4998290;28;20428;-93
2024/03/03 01:46:39;;;;;;;2.75;2.55;;;10.70;99.90;;;;;;4997750;28;20026;-93
2024/03/03 01:49:07;;;;;;;2.60;2.38;;;10.90;99.90;;;;;;4998306;28;20378;-92
2024/03/03 01:51:33;;;;;;;3.53;3.03;;;11.60;99.90;;;;;;4998039;28;20026;-92
2024/03/03 01:53:58;;;;;;;2.80;2.08;;;10.70;99.90;;;;;;4997990;28;20034;-93
2024/03/03 01:56:26;;;;;;;2.60;2.10;;;10.70;99.90;;;;;;4997418;28;20029;-92
2024/03/03 01:58:52;;;;;;;3.10;2.10;;;10.70;99.90;;;;;;4997192;28;20483;-93
2024/03/03 02:01:20;;;;;;;3.05;1.95;;;10.60;99.90;;;;;;4997778;28;20101;-93
2024/03/03 02:03:46;;;;;;;5.38;2.53;;;10.70;99.90;;;;;;4997802;28;20034;-93
2024/03/03 02:06:15;;;;;;;2.65;2.15;;;10.70;99.90;;;;;;4998009;28;20030;-91
2024/03/03 02:08:41;;;;;;;2.35;1.92;;;11.40;99.90;;;;;;4997480;28;20023;-92
2024/03/03 02:11:07;;;;;;;2.42;2.20;;;10.60;99.90;;;;;;4997486;28;20023;-92
2024/03/03 02:13:33;;;;;;;2.40;2.20;;;10.60;99.90;;;;;;4997629;28;20060;-93
2024/03/03 02:15:59;;;;;;;2.28;2.08;;;11.40;99.90;;;;;;4997361;28;20023;-91
2024/03/03 02:18:24;;;;;;;2.33;2.13;;;11.10;99.90;;;;;;4997585;28;20540;-93
2024/03/03 02:20:50;;;;;;;2.38;2.08;;;10.60;99.90;;;;;;4997346;28;20029;-93
2024/03/03 02:23:15;;;;;;;2.33;2.13;;;10.60;99.90;;;;;;4997793;28;20030;-91
2024/03/03 02:25:41;;;;;;;2.20;2.00;;;10.60;99.90;;;;;;4997418;28;20478;-93
2024/03/03 02:28:08;;;;;;;3.42;2.63;;;10.60;99.90;;;;;;4997692;28;20053;-94
2024/03/03 02:30:33;;;;;;;2.45;2.25;;;10.50;99.90;;;;;;4997035;28;20022;-91
2024/03/03 02:32:59;;;;;;;2.38;2.13;;;10.50;99.90;;;;;;4996536;28;20057;-92
2024/03/03 02:35:24;;;;;;;2.75;2.20;;;10.50;99.90;;;;;;4997300;28;20081;-92
2024/03/03 02:37:50;;;;;;;2.40;1.88;;;10.50;99.90;;;;;;4996837;28;20038;-90
2024/03/03 02:40:16;;;;;;;2.90;2.60;;;10.50;99.90;;;;;;4997007;28;20021;-93
2024/03/03 02:42:41;;;;;;;2.97;2.30;;;10.50;99.90;;;;;;4996998;28;20050;-92
2024/03/03 02:45:07;;;;;;;3.50;2.22;;;10.50;99.90;;;;;;4997116;28;20026;-90
2024/03/03 02:47:33;;;;;;;2.75;2.47;;;10.50;99.90;;;;;;4996537;28;20141;-93
2024/03/03 02:49:58;;;;;;;3.00;2.72;;;10.80;99.90;;;;;;4996781;28;20022;-91
2024/03/03 02:52:24;;;;;;;4.35;2.78;;;10.40;99.90;;;;;;4996794;28;20054;-92
2024/03/03 02:54:50;;;;;;;2.95;2.63;;;11.10;99.90;;;;;;4996479;28;20026;-91
2024/03/03 02:57:15;;;;;;;3.47;2.78;;;10.40;99.90;;;;;;4996943;28;20054;-91
2024/03/03 02:59:41;;;;;;;3.85;2.70;;;10.40;99.90;;;;;;4996586;28;20030;-91
2024/03/03 03:02:06;;;;;;;3.30;2.97;;;10.90;99.90;;;;;;4996728;28;20478;-93
2024/03/03 03:04:32;;;;;;;4.43;2.92;;;10.40;99.90;;;;;;4995856;28;20489;-93
2024/03/03 03:06:57;;;;;;;5.32;3.28;;;10.40;99.90;;;;;;4996270;28;20485;-92
2024/03/03 03:09:25;;;;;;;3.20;2.90;;;10.40;99.90;;;;;;4996605;28;20030;-92
2024/03/03 03:11:50;;;;;;;4.18;3.08;;;10.30;99.90;;;;;;4996365;28;20034;-92
2024/03/03 03:14:16;;;;;;;3.90;3.35;;;10.50;99.90;;;;;;4996471;28;20026;-92
2024/03/03 03:16:42;;;;;;;5.35;3.63;;;10.30;99.90;;;;;;4996513;28;20030;-92
2024/03/03 03:19:08;;;;;;;3.83;3.10;;;10.40;99.90;;;;;;4996354;28;20033;-92
2024/03/03 03:21:34;;;;;;;7.50;3.05;;;10.80;99.90;;;;;;4997134;28;20027;-91
2024/03/03 03:24:00;;;;;;;4.47;3.45;;;10.40;99.90;;;;;;4997268;28;20046;-93
2024/03/03 03:26:26;;;;;;;3.65;2.83;;;10.30;99.90;;;;;;4994443;28;20030;-91
2024/03/03 03:28:51;;;;;;;6.10;3.20;;;10.30;99.90;;;;;;4977987;28;20542;-92
2024/03/03 03:31:17;;;;;;;4.20;3.78;;;10.80;99.90;;;;;;4977392;28;20033;-91
2024/03/03 03:33:42;;;;;;;6.63;3.72;;;10.30;99.90;;;;;;4975963;28;20082;-93
2024/03/03 03:36:09;;;;;;;3.65;3.30;;;10.20;99.90;;;;;;4976790;28;20452;-93
2024/03/03 03:38:35;;;;;;;4.28;3.80;;;11.20;99.90;;;;;;4976279;28;20023;-92
2024/03/03 03:41:04;;;;;;;4.90;3.72;;;10.20;99.90;;;;;;4976461;28;20019;-92
2024/03/03 03:43:31;;;;;;;11.07;4.00;;;10.10;99.90;;;;;;4977109;28;20151;-94
2024/03/03 03:45:57;;;;;;;5.35;3.90;;;10.40;99.90;;;;;;4982771;28;20038;-92
2024/03/03 03:48:23;;;;;;;4.70;4.20;;;10.20;99.90;;;;;;4996023;28;20022;-94
2024/03/03 03:50:49;;;;;;;4.53;4.13;;;10.10;99.90;;;;;;4995864;28;20057;-92
2024/03/03 03:53:15;;;;;;;5.30;3.75;;;10.20;99.90;;;;;;4996106;28;20470;-92
2024/03/03 03:55:40;;;;;;;4.25;3.70;;;11.40;99.90;;;;;;4995578;28;20128;-92
2024/03/03 03:58:06;;;;;;;8.90;4.05;;;10.20;99.90;;;;;;4995705;28;20027;-89
2024/03/03 04:00:33;;;;;;;5.18;4.22;;;10.10;99.90;;;;;;4995264;28;20074;-92
2024/03/03 04:02:58;;;;;;;13.68;3.95;;;10.10;99.90;;;;;;4995490;28;20054;-93
2024/03/03 04:05:25;;;;;;;4.72;4.22;;;10.10;99.90;;;;;;4996049;28;20026;-91
2024/03/03 04:07:50;;;;;;;3.92;3.53;;;10.10;99.90;;;;;;4998600;28;20094;-92
2024/03/03 04:10:18;;;;;;;4.47;4.05;;;10.10;99.90;;;;;;4983593;28;20051;-91
2024/03/03 04:12:44;;;;;;;4.55;4.15;;;10.10;99.90;;;;;;4979915;28;20030;-92
2024/03/03 04:15:11;;;;;;;5.07;4.32;;;10.10;99.90;;;;;;4995548;28;20022;-91
2024/03/03 04:17:37;;;;;;;6.43;3.97;;;10.10;99.90;;;;;;4995243;28;20018;-92
2024/03/03 04:20:05;;;;;;;5.65;3.90;;;10.10;99.90;;;;;;4995507;28;20058;-92
2024/03/03 04:22:30;;;;;;;5.07;4.57;;;10.10;99.90;;;;;;4995267;28;20027;-90
2024/03/03 04:24:56;;;;;;;7.20;3.75;;;10.00;99.90;;;;;;4994896;28;20026;-92
2024/03/03 04:27:22;;;;;;;4.68;4.20;;;10.10;99.90;;;;;;4977088;28;20033;-91
2024/03/03 04:29:48;;;;;;;9.10;3.53;;;10.10;99.90;;;;;;4975461;28;20023;-93
2024/03/03 04:32:13;;;;;;;5.35;4.63;;;11.40;99.90;;;;;;4975643;28;20432;-91
2024/03/03 04:34:39;;;;;;;4.38;3.97;;;10.00;99.90;;;;;;4975059;28;20066;-91
2024/03/03 04:37:08;;;;;;;4.65;4.25;;;10.40;99.90;;;;;;4975473;28;20034;-92
2024/03/03 04:39:35;;;;;;;4.57;4.15;;;9.90;99.90;;;;;;4975721;28;20023;-91
2024/03/03 04:42:02;;;;;;;6.15;4.28;;;9.90;99.90;;;;;;4975148;28;20033;-92
2024/03/03 04:44:31;;;;;;;5.45;4.65;;;10.00;99.90;;;;;;4975367;28;20480;-93
2024/03/03 04:46:57;;;;;;;8.23;4.93;;;10.00;99.90;;;;;;4989396;28;20278;-91
2024/03/03 04:49:24;;;;;;;4.53;4.13;;;10.40;99.90;;;;;;4994942;28;20101;-93
2024/03/03 04:51:49;;;;;;;6.80;4.65;;;10.00;99.90;;;;;;4994294;28;20065;-92
2024/03/03 04:54:15;;;;;;;5.50;4.50;;;10.00;99.90;;;;;;4994898;28;20054;-90
2024/03/03 04:56:41;;;;;;;9.07;4.43;;;10.00;99.90;;;;;;4994464;28;20022;-92
2024/03/03 04:59:06;;;;;;;4.60;4.18;;;10.10;99.90;;;;;;4994928;28;20042;-93
2024/03/03 05:01:33;;;;;;;7.20;4.22;;;10.10;99.90;;;;;;4999725;28;20022;-94
2024/03/03 05:03:59;;;;;;;5.25;4.15;;;10.00;99.90;;;;;;4998025;28;20088;-92
2024/03/03 05:06:24;;;;;;;4.72;3.67;;;10.10;99.90;;;;;;4994930;28;20027;-93
2024/03/03 05:08:50;;;;;;;4.32;3.92;;;10.10;99.90;;;;;;4992754;28;20455;-93
2024/03/03 05:11:16;;;;;;;4.43;4.03;;;10.10;99.90;;;;;;4995976;28;20033;-92
2024/03/03 05:13:42;;;;;;;4.88;4.38;;;10.20;99.90;;;;;;4997215;28;20125;-92
2024/03/03 05:16:08;;;;;;;5.65;4.68;;;10.10;99.90;;;;;;4997607;28;20057;-92
2024/03/03 05:18:34;;;;;;;5.60;4.03;;;10.10;99.90;;;;;;4989027;28;20030;-90
2024/03/03 05:21:00;;;;;;;5.32;4.60;;;10.10;99.90;;;;;;4989447;28;20030;-91
2024/03/03 05:23:27;;;;;;;5.38;4.13;;;10.10;99.90;;;;;;4993577;28;20023;-91
2024/03/03 05:25:53;;;;;;;5.63;5.13;;;10.10;99.90;;;;;;4989663;28;20066;-91
2024/03/03 05:28:19;;;;;;;5.53;4.93;;;10.10;99.90;;;;;;4979951;28;20022;-93
2024/03/03 05:30:45;;;;;;;7.15;3.92;;;11.20;99.90;;;;;;4991181;28;20104;-91
2024/03/03 05:33:11;;;;;;;7.50;4.53;;;10.10;99.90;;;;;;4991229;28;20078;-90
2024/03/03 05:35:38;;;;;;;6.55;4.43;;;10.10;99.90;;;;;;4999008;28;20034;-94
2024/03/03 05:38:04;;;;;;;6.78;4.80;;;10.10;99.90;;;;;;4998847;28;20031;-93
2024/03/03 05:40:29;;;;;;;8.90;4.80;;;10.10;99.90;;;;;;4999778;28;20088;-94
2024/03/03 05:42:55;;;;;;;6.53;4.18;;;10.10;99.90;;;;;;4998344;28;20034;-93
2024/03/03 05:45:21;;;;;;;5.22;4.72;;;10.10;99.90;;;;;;4998944;28;20030;-94
2024/03/03 05:47:46;;;;;;;4.93;4.05;;;10.90;99.90;;;;;;4999750;28;20165;-94
2024/03/03 05:50:12;;;;;;;9.90;5.05;;;10.70;99.90;;;;;;4999536;28;20081;-94
2024/03/03 05:52:37;;;;;;;6.20;4.63;;;11.20;99.90;;;;;;5001573;28;20039;-94
2024/03/03 05:55:07;;;;;;;4.43;4.03;;;10.10;99.90;;;;;;5001948;28;20038;-92
2024/03/03 05:57:33;;;;;;;12.17;5.07;;;9.80;99.90;;;;;;5002118;28;20026;-93
2024/03/03 05:59:59;;;;;;;5.03;4.53;;;10.10;99.90;;;;;;4999379;28;20030;-89
2024/03/03 06:02:24;;;;;;;5.60;4.88;;;10.30;99.90;;;;;;4998129;28;20025;-94
2024/03/03 06:04:50;;;;;;;5.50;5.00;;;10.10;99.90;;;;;;4998279;28;20033;-94
2024/03/03 06:07:16;;;;;;;5.90;5.05;;;10.10;99.90;;;;;;4998277;28;20018;-93
2024/03/03 06:09:41;;;;;;;5.10;4.70;;;10.90;99.90;;;;;;4998273;28;20155;-94
2024/03/03 06:12:07;;;;;;;6.05;4.90;;;10.00;99.90;;;;;;5009052;28;20038;-93
2024/03/03 06:14:33;;;;;;;6.15;5.47;;;10.50;99.90;;;;;;5003771;28;20018;-94
2024/03/03 06:16:59;;;;;;;6.30;4.90;;;10.20;99.90;;;;;;4997730;28;20022;-92
2024/03/03 06:19:25;;;;;;;5.63;5.10;;;10.80;99.90;;;;;;4998289;28;20035;-95
2024/03/03 06:21:51;;;;;;;6.07;5.18;;;10.90;99.90;;;;;;4996747;28;20489;-93
2024/03/03 06:24:17;;;;;;;6.95;5.68;;;10.10;99.90;;;;;;4998029;28;20022;-94
2024/03/03 06:26:43;;;;;;;7.05;5.95;;;10.90;99.90;;;;;;4998445;28;20567;-92
2024/03/03 06:29:08;;;;;;;7.35;5.38;;;10.40;99.90;;;;;;5002814;28;20030;-90
2024/03/03 06:31:34;;;;;;;6.22;5.63;;;10.10;99.90;;;;;;5000367;28;20382;-92
2024/03/03 06:33:59;;;;;;;8.63;5.90;;;10.10;99.90;;;;;;4999543;28;20058;-92
2024/03/03 06:36:25;;;;;;;6.28;5.70;;;10.00;99.90;;;;;;4999842;28;20050;-91
2024/03/03 06:38:51;;;;;;;8.10;6.25;;;10.30;99.90;;;;;;4997460;28;20068;-89
2024/03/03 06:41:16;;;;;;;7.95;5.65;;;10.00;99.90;;;;;;4999289;28;20407;-92
2024/03/03 06:43:47;;;;;;;6.30;5.70;;;10.00;99.90;;;;;;5004660;28;20481;-91
2024/03/03 06:46:21;;;;;;;7.00;5.20;;;10.30;99.90;;;;;;4995518;28;20566;-95
2024/03/03 06:48:48;;;;;;;9.52;6.72;;;9.50;99.90;;;;;;4969246;28;20039;-91
2024/03/03 06:51:14;;;;;;;6.90;6.20;;;10.70;99.90;;;;;;4987743;28;20078;-94
2024/03/03 06:53:40;;;;;;;7.90;6.53;;;10.90;99.90;;;;;;4978559;28;20038;-92
2024/03/03 06:56:15;;;;;;;7.45;6.18;;;11.10;99.90;;;;;;4979455;28;20106;-94
2024/03/03 07:14:11;;;;;;;7.13;6.15;;;10.00;99.90;;;;;;4976560;28;20101;-95
2024/03/03 07:19:12;;;;;;;7.30;6.60;;;10.00;99.90;;;;;;5090317;23;20561;-94
2024/03/03 07:21:38;;;;;;;7.10;6.45;;;10.40;99.90;;;;;;5007624;28;20022;-94
2024/03/03 07:24:04;;;;;;;11.05;7.05;;;10.50;99.90;;;;;;5166467;23;20068;-94
2024/03/03 07:26:35;;;;;;;6.38;5.78;;;10.10;99.90;;;;;;5005941;28;20022;-93
2024/03/03 07:29:03;;;;;;;8.63;6.43;;;10.10;99.90;;;;;;5011836;23;20062;-95
2024/03/03 07:31:29;;;;;;;11.15;7.80;;;10.40;99.90;;;;;;5473705;23;20026;-94
2024/03/03 07:39:11;;;;;;;10.70;7.07;;;10.10;99.90;;;;;;5137919;23;20070;-92
2024/03/03 07:41:36;;;;;;;7.68;6.97;;;10.40;99.90;;;;;;4940986;29;20028;-91
2024/03/03 07:44:06;;;;;;;9.68;7.93;;;10.10;99.90;;;;;;4946963;29;20020;-94
2024/03/03 07:46:37;;;;;;;11.30;7.50;;;10.10;99.90;;;;;;4942967;29;20019;-94
2024/03/03 07:49:03;;;;;;;13.00;7.97;;;10.00;99.90;;;;;;4940618;29;20051;-94
2024/03/03 07:51:28;;;;;;;11.25;8.07;;;10.70;99.90;;;;;;4942168;29;20114;-94
2024/03/03 07:53:54;;;;;;;9.02;7.90;;;11.50;99.90;;;;;;4941729;29;20063;-95
2024/03/03 07:56:20;;;;;;;11.98;8.85;;;10.60;99.90;;;;;;4944635;29;20050;-92
2024/03/03 07:58:52;;;;;;;13.25;8.93;;;11.00;99.90;;;;;;4941181;29;20507;-94
2024/03/03 08:01:17;;;;;;;9.02;8.10;;;10.90;99.90;;;;;;4980899;23;20085;-94
2024/03/03 08:08:54;;;;;;;13.43;9.00;;;10.20;99.90;;;;;;5410640;23;20062;-94
2024/03/03 08:11:19;;;;;;;14.15;9.10;;;10.90;99.90;;;;;;4987111;28;20031;-95
2024/03/03 08:13:48;;;;;;;9.98;8.93;;;10.70;99.90;;;;;;4986471;28;20049;-95
2024/03/03 08:16:14;;;;;;;11.90;8.52;;;10.50;99.90;;;;;;5223779;23;20039;-96
2024/03/03 08:18:39;;;;;;;12.30;9.05;;;10.50;99.90;;;;;;4993440;28;20090;-95
2024/03/03 08:21:08;;;;;;;13.25;8.85;;;10.60;99.90;;;;;;4973360;28;20047;-92
2024/03/03 08:23:34;;;;;;;12.10;9.80;;;10.90;99.90;;;;;;4959146;29;20035;-94
2024/03/03 08:26:01;;;;;;;10.45;9.20;;;10.80;99.90;;;;;;4958991;29;20349;-91
2024/03/03 08:28:27;;;;;;;12.45;10.15;;;10.20;99.90;;;;;;4957500;28;20035;-91
2024/03/03 08:30:53;;;;;;;11.25;10.05;;;10.90;99.90;;;;;;4965926;28;20025;-93
2024/03/03 08:33:19;;;;;;;11.95;9.73;;;10.40;99.90;;;;;;4975255;28;20132;-94
2024/03/03 08:35:45;;;;;;;10.40;9.40;;;10.10;99.90;;;;;;4989927;28;20023;-93
2024/03/03 08:38:21;;;;;;;13.60;10.18;;;10.40;99.90;;;;;;4999741;28;20089;-88
2024/03/03 08:40:46;;;;;;;13.60;10.27;;;11.10;99.90;;;;;;4970693;28;20065;-93
2024/03/03 08:43:12;;;;;;;11.40;9.57;;;11.10;99.90;;;;;;4974928;28;20026;-93
2024/03/03 08:45:37;;;;;;;11.88;10.35;;;11.20;99.90;;;;;;4974436;28;20031;-93
2024/03/03 08:48:03;;;;;;;14.20;11.07;;;10.50;99.90;;;;;;4974294;28;20026;-93
2024/03/03 08:50:29;;;;;;;11.93;10.75;;;10.60;99.90;;;;;;4974605;28;20027;-94
2024/03/03 08:52:55;;;;;;;12.57;9.50;;;10.60;99.90;;;;;;4975584;28;20042;-93
2024/03/03 08:55:20;;;;;;;12.18;10.35;;;11.50;99.90;;;;;;4978524;28;20534;-94
2024/03/03 08:57:46;;;;;;;11.50;10.40;;;10.70;99.90;;;;;;4976425;28;20033;-94
2024/03/03 09:00:13;;;;;;;13.88;10.63;;;10.90;99.90;;;;;;4979532;28;20053;-93
2024/03/03 09:02:42;;;;;;;14.07;11.65;;;10.80;99.90;;;;;;4980917;28;20041;-91
2024/03/03 09:05:11;;;;;;;14.45;10.48;;;10.80;99.90;;;;;;4973554;28;20463;-92
2024/03/03 09:07:37;;;;;;;12.32;10.32;;;11.60;99.90;;;;;;4975108;28;20483;-88
2024/03/03 09:10:07;;;;;;;12.10;10.05;;;10.90;99.90;;;;;;4975134;28;20022;-93
2024/03/03 09:12:32;;;;;;;14.68;10.75;;;11.00;99.90;;;;;;4962305;28;20047;-92
2024/03/03 09:14:59;;;;;;;13.00;9.90;;;11.00;99.90;;;;;;4971582;28;20041;-91
2024/03/03 09:17:25;;;;;;;11.70;10.18;;;11.00;99.90;;;;;;4973340;28;20442;-90
2024/03/03 09:19:51;;;;;;;13.48;9.55;;;11.10;99.90;;;;;;4981580;28;20081;-91
2024/03/03 09:22:16;;;;;;;12.40;9.20;;;11.10;99.90;;;;;;4966439;28;20372;-91
2024/03/03 09:24:43;;;;;;;12.93;9.02;;;11.20;99.90;;;;;;4971175;28;20027;-91
2024/03/03 09:27:12;;;;;;;11.35;9.13;;;11.20;99.90;;;;;;4973061;28;20034;-94
2024/03/03 09:29:37;;;;;;;13.00;9.10;;;11.30;99.90;;;;;;4972398;28;20461;-89
2024/03/03 09:32:03;;;;;;;13.15;9.75;;;11.30;99.90;;;;;;4973324;28;20074;-92
2024/03/03 09:34:29;;;;;;;10.55;8.10;;;11.40;99.90;;;;;;4972480;28;20038;-89
2024/03/03 09:36:55;;;;;;;10.55;8.93;;;11.40;99.90;;;;;;4972480;28;20030;-89
2024/03/03 09:39:21;;;;;;;8.43;7.60;;;11.40;99.90;;;;;;4970926;28;20166;-87
2024/03/03 09:41:50;;;;;;;10.50;8.23;;;11.90;99.90;;;;;;4965666;28;20033;-93
2024/03/03 09:44:17;;;;;;;9.60;6.90;;;11.50;99.90;;;;;;4953998;29;20024;-90
2024/03/03 09:46:43;;;;;;;9.80;7.82;;;11.50;99.90;;;;;;4954497;29;20106;-88
2024/03/03 09:49:17;;;;;;;10.45;8.15;;;11.60;99.90;;;;;;4960277;29;20047;-90
2024/03/03 09:51:47;;;;;;;7.72;6.63;;;11.60;99.90;;;;;;4957359;29;20027;-90
2024/03/03 09:54:14;;;;;;;10.95;7.50;;;12.10;99.90;;;;;;4956659;29;20027;-94
2024/03/03 09:56:48;;;;;;;15.82;8.00;;;11.70;99.90;;;;;;4959190;28;20059;-94
2024/03/03 09:59:14;;;;;;;9.00;7.35;;;11.70;99.90;;;;;;4979541;28;20474;-94
2024/03/03 10:01:54;;;;;;;8.18;7.38;;;11.80;99.90;;;;;;4986283;28;20035;-93
2024/03/03 10:04:21;;;;;;;10.98;8.05;;;11.80;99.90;;;;;;4974045;28;20427;-92
2024/03/03 10:06:50;;;;;;;11.43;7.15;;;11.70;99.90;;;;;;4973367;28;20019;-93
2024/03/03 10:09:18;;;;;;;14.10;7.63;;;11.80;99.90;;;;;;4971056;28;20049;-93
2024/03/03 10:11:44;;;;;;;9.57;6.88;;;11.80;99.90;;;;;;4981861;28;20031;-93
2024/03/03 10:14:13;;;;;;;7.75;6.50;;;12.20;99.90;;;;;;4980124;28;20015;-93
2024/03/03 10:16:38;;;;;;;6.72;6.13;;;11.90;99.90;;;;;;4992493;28;20106;-92
2024/03/03 10:19:05;;;;;;;7.82;6.63;;;12.30;99.90;;;;;;4976922;28;20050;-93
2024/03/03 10:21:36;;;;;;;6.13;5.50;;;12.80;99.90;;;;;;4978043;28;20130;-93
2024/03/03 10:24:19;;;;;;;6.00;5.05;;;11.90;99.90;;;;;;4974041;28;20023;-93
2024/03/03 10:26:45;;;;;;;4.35;3.92;;;12.70;99.90;;;;;;4971332;28;20423;-94
2024/03/03 10:29:11;;;;;;;7.60;4.55;;;11.50;99.90;;;;;;4973639;28;20026;-92
2024/03/03 10:31:37;;;;;;;5.05;4.03;;;12.70;99.90;;;;;;4961113;28;20027;-89
2024/03/03 10:34:02;;;;;;;9.52;3.95;;;12.00;99.90;;;;;;4966892;29;20043;-95
2024/03/03 10:36:28;;;;;;;9.43;4.53;;;12.20;99.90;;;;;;4967017;28;20035;-94
2024/03/03 10:38:54;;;;;;;4.70;3.08;;;12.70;99.90;;;;;;4973496;28;20023;-90
2024/03/03 10:41:20;;;;;;;5.20;3.50;;;12.10;99.90;;;;;;4964721;28;20041;-94
2024/03/03 10:43:46;;;;;;;3.50;3.20;;;12.20;99.90;;;;;;4975580;28;20038;-92
2024/03/03 10:46:12;;;;;;;4.10;3.10;;;12.30;99.90;;;;;;4969415;28;20038;-94
2024/03/03 10:48:40;;;;;;;2.50;2.30;;;12.40;99.90;;;;;;4975271;28;20491;-93
2024/03/03 10:51:07;;;;;;;2.00;1.80;;;12.50;99.90;;;;;;4976418;28;20035;-92
2024/03/03 10:53:32;;;;;;;3.03;1.50;;;12.50;99.90;;;;;;4979597;28;20042;-94
2024/03/03 10:55:59;;;;;;;1.60;1.40;;;12.50;99.90;;;;;;4988113;28;20031;-95
2024/03/03 10:58:26;;;;;;;4.30;1.42;;;12.70;99.90;;;;;;4977193;28;20039;-91
2024/03/03 11:00:53;;;;;;;2.30;1.20;;;12.60;99.90;;;;;;4975149;28;20023;-93
2024/03/03 11:03:19;;;;;;;3.00;1.52;;;12.60;99.90;;;;;;4975634;28;20035;-92
2024/03/03 11:05:46;;;;;;;2.35;1.65;;;12.60;99.90;;;;;;4975367;28;20026;-92
2024/03/03 11:08:13;;;;;;;3.58;2.33;;;12.70;99.90;;;;;;4985342;28;20042;-94
2024/03/03 11:10:39;;;;;;;3.97;2.40;;;13.10;99.90;;;;;;4960447;28;20464;-93
2024/03/03 11:13:06;;;;;;;3.83;2.65;;;13.00;99.90;;;;;;4975096;28;20054;-93
2024/03/03 11:15:35;;;;;;;3.05;2.30;;;12.80;99.90;;;;;;4966863;28;20030;-91
2024/03/03 11:18:04;;;;;;;2.28;2.03;;;12.90;99.90;;;;;;4987443;28;20074;-88
2024/03/03 11:20:37;;;;;;;8.35;4.05;;;12.90;99.90;;;;;;4976206;28;20072;-88
2024/03/03 11:23:18;;;;;;;2.20;1.20;;;13.00;99.90;;;;;;4977303;28;20034;-94
2024/03/03 11:26:10;;;;;;;2.42;1.52;;;13.00;99.90;;;;;;4974518;28;20026;-93
2024/03/03 11:28:40;;;;;;;2.15;1.10;;;13.10;99.90;;;;;;4964071;28;20035;-93
2024/03/03 11:31:05;;;;;;;3.53;2.22;;;13.10;99.90;;;;;;4973702;28;20471;-94
2024/03/03 11:33:32;;;;;;;1.42;1.20;;;13.10;99.90;;;;;;4959756;28;20090;-93
2024/03/03 11:35:58;;;;;;;3.60;1.20;;;13.10;99.90;;;;;;4974760;28;20031;-94
2024/03/03 11:38:39;;;;;;;3.42;1.65;;;13.10;99.90;;;;;;4973704;28;20030;-92
2024/03/03 11:41:10;;;;;;;3.20;1.50;;;13.20;99.90;;;;;;4964905;28;20062;-93
2024/03/03 11:43:45;;;;;;;2.38;1.50;;;13.80;99.90;;;;;;4972625;28;20452;-94
2024/03/03 11:46:31;;;;;;;4.13;3.13;;;13.20;99.90;;;;;;4969812;28;20039;-93
2024/03/03 11:49:00;;;;;;;5.13;3.97;;;13.30;99.90;;;;;;4971284;28;20076;-93
2024/03/03 11:51:28;;;;;;;4.70;4.13;;;13.30;99.90;;;;;;4972426;28;20034;-94
2024/03/03 11:54:07;;;;;;;6.82;3.70;;;13.40;99.90;;;;;;4976405;28;20031;-92
2024/03/03 11:56:50;;;;;;;4.78;4.13;;;13.50;99.90;;;;;;4982429;28;20043;-96
2024/03/03 11:59:16;;;;;;;4.78;3.00;;;13.50;99.90;;;;;;4981911;28;20091;-94
2024/03/03 12:01:46;;;;;;;7.45;3.55;;;13.60;99.90;;;;;;4990191;28;20027;-95
2024/03/03 12:04:13;;;;;;;4.60;2.72;;;13.60;99.90;;;;;;5048502;23;20081;-94
2024/03/03 12:06:45;;;;;;;5.63;3.03;;;14.00;99.90;;;;;;5090067;23;20038;-93
2024/03/03 12:09:12;;;;;;;3.75;2.65;;;13.80;99.90;;;;;;4991539;28;20031;-94
2024/03/03 12:11:41;;;;;;;3.25;2.95;;;14.90;99.90;;;;;;4972511;28;20360;-92
2024/03/03 12:14:07;;;;;;;7.45;4.72;;;14.90;99.90;;;;;;4975168;28;20139;-93
2024/03/03 12:19:10;;;;;;;3.33;2.88;;;13.80;99.90;;;;;;5613949;23;20059;-91
2024/03/03 12:21:39;;;;;;;3.78;3.05;;;14.20;99.90;;;;;;4967073;29;20037;-95
2024/03/03 12:24:11;;;;;;;3.35;2.85;;;14.70;99.90;;;;;;4960165;28;20027;-95
2024/03/03 12:26:39;;;;;;;4.43;2.30;;;13.80;99.90;;;;;;4947125;28;20023;-95
2024/03/03 12:29:05;;;;;;;2.22;2.03;;;13.60;99.90;;;;;;4954294;28;20177;-95
2024/03/03 12:31:31;;;;;;;2.50;2.30;;;14.90;99.90;;;;;;4953954;28;20039;-95
2024/03/03 12:33:58;;;;;;;3.15;2.28;;;15.00;99.90;;;;;;4962851;28;20035;-95
2024/03/03 12:36:30;;;;;;;4.20;2.33;;;14.80;99.90;;;;;;4969756;28;20048;-94
2024/03/03 12:38:55;;;;;;;5.25;2.00;;;13.80;99.90;;;;;;4957024;28;20094;-96
2024/03/03 12:41:27;;;;;;;3.55;2.42;;;15.20;99.90;;;;;;4959962;28;20464;-93
2024/03/03 12:43:56;;;;;;;5.95;2.83;;;15.10;99.90;;;;;;4973947;28;20042;-96
2024/03/03 12:46:24;;;;;;;3.38;2.28;;;13.50;99.90;;;;;;4953849;28;20162;-95
2024/03/03 12:48:53;;;;;;;6.93;2.92;;;14.40;99.90;;;;;;4960779;28;20022;-96
2024/03/03 12:51:19;;;;;;;4.32;2.75;;;15.00;99.90;;;;;;4967656;28;20091;-95
2024/03/03 12:53:46;;;;;;;3.10;2.80;;;14.00;99.90;;;;;;4960733;28;20040;-95
2024/03/03 12:56:17;;;;;;;4.07;3.50;;;14.00;99.90;;;;;;4959263;28;20042;-94
2024/03/03 12:58:44;;;;;;;4.35;3.88;;;14.00;99.90;;;;;;4963572;28;20031;-95
2024/03/03 13:01:10;;;;;;;8.23;4.50;;;13.70;99.90;;;;;;4961396;28;20506;-96
2024/03/03 13:03:46;;;;;;;8.70;4.80;;;14.40;99.90;;;;;;4957756;28;20110;-92
2024/03/03 13:06:15;;;;;;;4.93;4.40;;;14.10;99.90;;;;;;4960662;28;20023;-95
2024/03/03 13:08:41;;;;;;;7.40;6.00;;;14.20;99.90;;;;;;4957076;28;20077;-93
2024/03/03 13:11:10;;;;;;;9.35;6.10;;;15.00;99.90;;;;;;4957382;29;20027;-93
2024/03/03 13:13:37;;;;;;;6.35;5.68;;;15.20;99.90;;;;;;4961877;28;20073;-93
2024/03/03 13:16:03;;;;;;;6.43;5.75;;;15.50;99.90;;;;;;4967822;28;20054;-92